Time;durP1;ratioP1;P1;durP2;ratioP2;P2;SDS_P1;SDS_P2;PMS_P1;PMS_P2;Temp;Humidity;BMP_temperature;BMP_pressure;BME280_temperature;BME280_humidity;BME280_pressure;Samples;Min_cycle;Max_cycle;Signal;HPM_P1;HPM_P2
2021/04/01 00:02:06;;;;;;;11.45;8.73;;;11.30;77.00;;;;;;5084883;28;20240;-68
2021/04/01 00:04:32;;;;;;;10.90;9.05;;;11.30;77.50;;;;;;5086779;28;20204;-67
2021/04/01 00:06:59;;;;;;;10.90;9.07;;;11.20;77.80;;;;;;5085672;28;20371;-68
2021/04/01 00:09:26;;;;;;;10.02;8.52;;;11.30;77.10;;;;;;5073829;28;20658;-68
2021/04/01 00:11:52;;;;;;;12.32;9.88;;;11.50;76.40;;;;;;5083462;28;20296;-67
2021/04/01 00:14:20;;;;;;;8.73;7.93;;;11.60;76.10;;;;;;5079508;28;20228;-67
2021/04/01 00:16:47;;;;;;;11.75;8.95;;;11.60;76.30;;;;;;5076893;28;20215;-68
2021/04/01 00:19:14;;;;;;;12.88;9.52;;;11.50;77.00;;;;;;5082230;28;20205;-68
2021/04/01 00:21:41;;;;;;;11.15;8.60;;;11.40;77.50;;;;;;5086324;28;20209;-67
2021/04/01 00:24:08;;;;;;;9.07;8.23;;;11.20;77.90;;;;;;5083771;28;20772;-68
2021/04/01 00:26:35;;;;;;;12.43;9.35;;;11.10;78.30;;;;;;5082524;28;20200;-67
2021/04/01 00:29:01;;;;;;;10.60;9.40;;;11.10;78.30;;;;;;5083025;28;20196;-67
2021/04/01 00:31:27;;;;;;;10.65;8.45;;;11.20;78.40;;;;;;5081168;28;20234;-68
2021/04/01 00:33:54;;;;;;;9.50;8.20;;;11.10;78.60;;;;;;5071013;28;20211;-67
2021/04/01 00:36:20;;;;;;;11.27;8.90;;;11.10;78.80;;;;;;5080609;28;20200;-67
2021/04/01 00:38:47;;;;;;;9.80;8.77;;;11.20;78.40;;;;;;5085500;28;20292;-68
2021/04/01 00:41:14;;;;;;;11.02;9.23;;;11.20;78.30;;;;;;5081692;28;20201;-67
2021/04/01 00:43:40;;;;;;;9.68;8.60;;;11.20;78.40;;;;;;5075722;28;20258;-67
2021/04/01 00:46:06;;;;;;;9.70;8.38;;;11.20;78.50;;;;;;5085279;28;20582;-67
2021/04/01 00:48:33;;;;;;;10.07;9.07;;;11.20;78.80;;;;;;5082825;28;20330;-67
2021/04/01 00:50:59;;;;;;;9.57;8.60;;;11.10;79.60;;;;;;5085944;28;20202;-67
2021/04/01 00:53:25;;;;;;;10.07;8.65;;;10.90;80.10;;;;;;5083445;28;20204;-67
2021/04/01 00:55:52;;;;;;;10.68;8.77;;;10.80;80.60;;;;;;5081533;28;20288;-68
2021/04/01 00:58:20;;;;;;;9.82;8.82;;;10.70;81.10;;;;;;5085677;28;20287;-67
2021/04/01 01:00:51;;;;;;;13.02;10.55;;;10.70;81.20;;;;;;5073089;28;20209;-67
2021/04/01 01:03:17;;;;;;;9.20;8.20;;;10.90;81.00;;;;;;5080086;28;20276;-67
2021/04/01 01:05:44;;;;;;;10.95;8.52;;;10.90;80.60;;;;;;5079247;28;20305;-67
2021/04/01 01:08:10;;;;;;;10.20;9.10;;;10.90;80.90;;;;;;5081578;28;20359;-68
2021/04/01 01:10:36;;;;;;;14.15;8.85;;;10.80;81.30;;;;;;5082368;28;20220;-67
2021/04/01 01:13:04;;;;;;;10.48;8.82;;;10.70;81.30;;;;;;5083830;28;20200;-67
2021/04/01 01:15:31;;;;;;;9.70;8.57;;;10.70;81.50;;;;;;5078923;28;20282;-67
2021/04/01 01:17:58;;;;;;;11.95;8.93;;;10.60;81.60;;;;;;5080836;28;20200;-67
2021/04/01 01:20:26;;;;;;;12.60;10.05;;;10.60;81.70;;;;;;5086002;28;20300;-67
2021/04/01 01:22:53;;;;;;;10.57;8.20;;;10.50;81.70;;;;;;5074000;28;20246;-68
2021/04/01 01:25:21;;;;;;;14.32;8.95;;;10.40;81.70;;;;;;5084264;28;20348;-67
2021/04/01 01:27:49;;;;;;;9.23;8.25;;;10.30;82.00;;;;;;5082121;28;20294;-67
2021/04/01 01:30:18;;;;;;;9.65;8.85;;;10.30;82.30;;;;;;5078692;28;20331;-67
2021/04/01 01:32:46;;;;;;;12.02;8.60;;;10.30;82.30;;;;;;5085285;28;20337;-67
2021/04/01 01:35:17;;;;;;;10.23;8.77;;;10.30;82.60;;;;;;5082519;28;20204;-67
2021/04/01 01:37:51;;;;;;;9.90;8.90;;;10.20;83.10;;;;;;5084957;28;20668;-67
2021/04/01 01:40:18;;;;;;;9.52;8.63;;;10.10;83.50;;;;;;5083131;28;20204;-66
2021/04/01 01:42:45;;;;;;;10.20;9.20;;;10.00;84.00;;;;;;5083865;28;20551;-67
2021/04/01 01:45:13;;;;;;;12.23;9.43;;;10.00;84.20;;;;;;5083072;28;20331;-67
2021/04/01 01:47:39;;;;;;;10.13;8.48;;;10.00;84.40;;;;;;5079318;28;20242;-67
2021/04/01 01:50:09;;;;;;;10.13;8.32;;;10.00;84.30;;;;;;5079543;28;20197;-67
2021/04/01 01:52:35;;;;;;;12.00;9.55;;;10.00;84.80;;;;;;5076465;28;20599;-68
2021/04/01 01:55:02;;;;;;;10.02;9.07;;;9.90;86.40;;;;;;5082911;28;20291;-67
2021/04/01 01:57:28;;;;;;;9.52;8.55;;;9.80;87.10;;;;;;5076098;28;20295;-67
2021/04/01 01:59:56;;;;;;;12.77;8.75;;;9.70;87.90;;;;;;5084816;28;20224;-67
2021/04/01 02:02:22;;;;;;;10.73;8.07;;;9.70;88.30;;;;;;5084295;28;20207;-68
2021/04/01 02:04:48;;;;;;;12.00;8.68;;;9.60;88.60;;;;;;5077092;28;20296;-67
2021/04/01 02:07:14;;;;;;;10.38;9.25;;;9.60;89.60;;;;;;5076691;28;20231;-68
2021/04/01 02:09:46;;;;;;;10.10;8.88;;;9.60;89.60;;;;;;5084561;28;20694;-67
2021/04/01 02:12:13;;;;;;;8.80;8.00;;;9.50;90.00;;;;;;5080377;28;20605;-68
2021/04/01 02:14:40;;;;;;;11.80;9.52;;;9.50;90.10;;;;;;5076795;28;20339;-67
2021/04/01 02:17:08;;;;;;;9.52;8.63;;;9.50;90.10;;;;;;5085427;28;20711;-68
2021/04/01 02:19:34;;;;;;;11.30;9.20;;;9.40;90.30;;;;;;5083269;28;20258;-67
2021/04/01 02:22:00;;;;;;;11.43;8.60;;;9.40;90.40;;;;;;5090191;28;20201;-67
2021/04/01 02:24:27;;;;;;;9.88;8.85;;;9.40;90.50;;;;;;5083517;28;20282;-67
2021/04/01 02:26:55;;;;;;;8.80;8.00;;;9.40;90.60;;;;;;5080495;28;20840;-67
2021/04/01 02:29:21;;;;;;;9.82;7.55;;;9.40;90.60;;;;;;5085898;28;20200;-68
2021/04/01 02:31:48;;;;;;;9.45;8.45;;;9.30;90.60;;;;;;5078429;28;20717;-68
2021/04/01 02:34:15;;;;;;;10.05;8.30;;;9.30;90.90;;;;;;5085388;28;20283;-67
2021/04/01 02:36:42;;;;;;;10.35;8.43;;;9.30;90.70;;;;;;5086380;28;20239;-67
2021/04/01 02:39:08;;;;;;;8.85;7.95;;;9.30;90.60;;;;;;5075581;28;20571;-68
2021/04/01 02:41:34;;;;;;;10.80;8.63;;;9.10;90.80;;;;;;5084178;28;20216;-68
2021/04/01 02:44:01;;;;;;;9.55;8.57;;;9.10;91.20;;;;;;5078621;28;20293;-67
2021/04/01 02:46:27;;;;;;;11.70;9.15;;;9.10;91.20;;;;;;5078291;28;20308;-66
2021/04/01 02:48:53;;;;;;;8.57;7.72;;;9.10;91.30;;;;;;5075484;28;20228;-68
2021/04/01 02:51:20;;;;;;;10.10;8.98;;;9.10;91.20;;;;;;5082431;28;20679;-67
2021/04/01 02:53:47;;;;;;;10.25;9.30;;;9.20;91.20;;;;;;5084832;28;20732;-68
2021/04/01 02:56:13;;;;;;;8.90;7.97;;;9.10;91.20;;;;;;5085541;28;20788;-67
2021/04/01 02:58:39;;;;;;;8.30;7.55;;;9.20;91.10;;;;;;5097349;28;20249;-67
2021/04/01 03:01:08;;;;;;;9.88;8.20;;;9.20;91.20;;;;;;5088591;28;20334;-67
2021/04/01 03:03:37;;;;;;;8.85;7.95;;;9.10;91.10;;;;;;5083437;28;20757;-67
2021/04/01 03:06:03;;;;;;;9.18;8.27;;;9.00;91.40;;;;;;5075811;28;20573;-67
2021/04/01 03:08:31;;;;;;;9.73;7.85;;;9.10;91.40;;;;;;5085307;28;20887;-67
2021/04/01 03:10:58;;;;;;;9.60;8.65;;;9.10;91.40;;;;;;5082772;28;20208;-68
2021/04/01 03:13:24;;;;;;;11.23;8.25;;;9.10;91.30;;;;;;5077413;28;20718;-68
2021/04/01 03:15:51;;;;;;;10.60;9.48;;;9.10;91.40;;;;;;5087159;28;20232;-68
2021/04/01 03:18:18;;;;;;;9.32;8.32;;;9.20;91.40;;;;;;5088072;28;20200;-68
2021/04/01 03:20:44;;;;;;;9.63;8.35;;;9.00;91.60;;;;;;5081393;28;20342;-68
2021/04/01 03:23:11;;;;;;;8.88;7.60;;;8.90;91.80;;;;;;5083991;28;20214;-67
2021/04/01 03:25:38;;;;;;;9.90;8.65;;;8.90;92.00;;;;;;5079643;28;20212;-67
2021/04/01 03:28:05;;;;;;;10.20;8.13;;;8.90;92.00;;;;;;5079194;28;20232;-67
2021/04/01 03:30:31;;;;;;;12.43;8.45;;;9.00;91.70;;;;;;5079316;28;20277;-68
2021/04/01 03:32:58;;;;;;;9.30;8.40;;;9.00;91.90;;;;;;5080339;28;20205;-68
2021/04/01 03:35:24;;;;;;;8.70;7.85;;;8.90;92.10;;;;;;5084675;28;20204;-68
2021/04/01 03:37:52;;;;;;;10.05;8.68;;;8.80;92.10;;;;;;5085502;28;20203;-68
2021/04/01 03:40:19;;;;;;;8.70;7.90;;;8.80;92.30;;;;;;5077525;28;20205;-66
2021/04/01 03:42:46;;;;;;;8.88;8.00;;;8.90;92.10;;;;;;5087728;28;20211;-67
2021/04/01 03:45:15;;;;;;;9.05;8.25;;;8.90;91.90;;;;;;5081538;28;20823;-67
2021/04/01 03:47:42;;;;;;;10.13;8.30;;;8.90;92.10;;;;;;5086720;28;20228;-68
2021/04/01 03:50:11;;;;;;;14.85;9.00;;;8.90;92.30;;;;;;5080572;28;20200;-67
2021/04/01 03:52:38;;;;;;;8.75;7.95;;;8.90;92.60;;;;;;5087980;28;20200;-67
2021/04/01 03:55:10;;;;;;;10.75;8.35;;;8.80;92.80;;;;;;5087138;28;20247;-67
2021/04/01 03:57:38;;;;;;;9.68;8.73;;;8.90;93.10;;;;;;5085453;28;20929;-67
2021/04/01 04:00:09;;;;;;;10.10;9.05;;;8.90;93.10;;;;;;5087896;28;20200;-68
2021/04/01 04:02:41;;;;;;;11.95;8.35;;;8.90;93.20;;;;;;5087811;28;20204;-67
2021/04/01 04:05:15;;;;;;;8.88;8.15;;;8.90;93.10;;;;;;5087152;28;20196;-67
2021/04/01 04:10:41;;;;;;;9.30;8.43;;;8.90;93.10;;;;;;5083393;28;20759;-67
2021/04/01 04:13:14;;;;;;;9.85;8.85;;;8.90;93.40;;;;;;5078570;28;20394;-67
2021/04/01 04:15:41;;;;;;;11.43;9.13;;;8.80;93.60;;;;;;5085329;28;20340;-68
2021/04/01 04:18:07;;;;;;;10.07;8.32;;;8.90;93.70;;;;;;5085067;28;20232;-66
2021/04/01 04:20:34;;;;;;;9.60;8.73;;;8.80;93.70;;;;;;5088030;28;20213;-67
2021/04/01 04:23:00;;;;;;;9.95;8.57;;;8.90;93.90;;;;;;5085510;28;20586;-67
2021/04/01 04:25:27;;;;;;;10.30;8.70;;;8.90;93.90;;;;;;5080214;28;20605;-67
2021/04/01 04:30:35;;;;;;;9.88;8.88;;;9.10;93.80;;;;;;5081903;28;20255;-67
2021/04/01 04:33:02;;;;;;;10.98;9.15;;;9.10;93.60;;;;;;5085107;28;20296;-67
2021/04/01 04:35:29;;;;;;;10.13;9.05;;;9.10;93.70;;;;;;5077596;28;20291;-68
2021/04/01 04:37:55;;;;;;;9.90;8.55;;;9.20;93.90;;;;;;5087750;28;20205;-67
2021/04/01 04:40:22;;;;;;;10.38;9.00;;;9.20;94.00;;;;;;5087056;28;20193;-68
2021/04/01 04:42:48;;;;;;;9.90;8.90;;;9.20;94.00;;;;;;5086548;28;20201;-67
2021/04/01 04:45:15;;;;;;;10.90;8.85;;;9.10;94.10;;;;;;5081459;28;20204;-68
2021/04/01 04:47:42;;;;;;;9.93;8.52;;;9.10;94.30;;;;;;5085206;28;20268;-68
2021/04/01 04:50:10;;;;;;;11.00;8.77;;;9.00;94.60;;;;;;5086113;28;20283;-68
2021/04/01 04:52:38;;;;;;;10.55;9.50;;;8.90;94.80;;;;;;5085889;28;20296;-67
2021/04/01 04:55:08;;;;;;;10.80;9.80;;;8.90;95.00;;;;;;5088357;28;20295;-67
2021/04/01 04:57:38;;;;;;;11.35;10.07;;;8.90;95.00;;;;;;4969206;28;20246;-68
2021/04/01 05:05:34;;;;;;;10.50;9.48;;;8.80;95.10;;;;;;5048925;28;20240;-68
2021/04/01 05:08:01;;;;;;;11.65;8.95;;;8.70;95.30;;;;;;5047284;28;20312;-68
2021/04/01 05:10:27;;;;;;;10.20;9.10;;;8.80;95.60;;;;;;5046182;28;20202;-68
2021/04/01 05:13:07;;;;;;;11.60;10.07;;;8.70;95.70;;;;;;5046944;28;20209;-67
2021/04/01 05:15:34;;;;;;;10.88;9.18;;;8.80;95.90;;;;;;5048591;28;20678;-68
2021/04/01 05:18:13;;;;;;;12.60;9.77;;;8.90;95.90;;;;;;5049593;28;20262;-69
2021/04/01 05:20:41;;;;;;;14.98;9.10;;;9.00;95.90;;;;;;5046044;28;20202;-69
2021/04/01 05:23:11;;;;;;;10.10;9.20;;;9.00;95.70;;;;;;5046592;28;20250;-69
2021/04/01 05:25:37;;;;;;;11.02;9.80;;;9.00;95.60;;;;;;5047778;28;20209;-69
2021/04/01 05:28:06;;;;;;;11.50;10.40;;;9.00;95.50;;;;;;5049062;28;20280;-68
2021/04/01 05:30:33;;;;;;;10.75;9.45;;;9.10;95.60;;;;;;5050194;28;20229;-69
2021/04/01 05:32:59;;;;;;;10.27;9.27;;;9.20;95.50;;;;;;5046728;28;20205;-68
2021/04/01 05:35:26;;;;;;;11.43;9.40;;;9.20;95.40;;;;;;5049325;28;20286;-69
2021/04/01 05:37:53;;;;;;;11.15;9.60;;;9.20;95.30;;;;;;5044803;28;20248;-69
2021/04/01 05:40:20;;;;;;;13.63;10.23;;;9.30;95.30;;;;;;5046978;28;20205;-69
2021/04/01 05:42:47;;;;;;;10.73;9.63;;;9.50;95.00;;;;;;5045716;28;20326;-68
2021/04/01 05:45:16;;;;;;;10.50;9.60;;;9.60;95.00;;;;;;5046294;28;20217;-69
2021/04/01 05:47:46;;;;;;;13.60;10.18;;;9.80;94.60;;;;;;5212583;22;20239;-70
2021/04/01 05:50:23;;;;;;;10.27;9.27;;;9.90;94.10;;;;;;5003288;28;20191;-68
2021/04/01 05:53:34;;;;;;;10.80;9.18;;;9.90;94.00;;;;;;4997063;28;20199;-68
2021/04/01 06:01:56;;;;;;;10.70;9.60;;;9.90;93.90;;;;;;5007975;28;20295;-68
2021/04/01 06:04:35;;;;;;;15.32;9.38;;;10.20;93.40;;;;;;4999998;28;20215;-69
2021/04/01 06:07:06;;;;;;;13.52;9.85;;;10.40;92.90;;;;;;5007535;28;20663;-68
2021/04/01 06:09:37;;;;;;;11.77;9.23;;;10.50;92.60;;;;;;5015876;28;20210;-68
2021/04/01 06:12:05;;;;;;;12.77;9.70;;;10.40;92.50;;;;;;5009954;28;20257;-70
2021/04/01 06:14:56;;;;;;;13.32;9.20;;;10.50;92.70;;;;;;5005749;28;20793;-70
2021/04/01 06:17:25;;;;;;;10.57;9.02;;;10.80;92.10;;;;;;5012402;28;20215;-70
2021/04/01 06:19:56;;;;;;;12.38;9.38;;;11.00;92.10;;;;;;5006649;28;20206;-70
2021/04/01 06:22:24;;;;;;;13.63;10.10;;;11.20;91.50;;;;;;5006904;28;20253;-65
2021/04/01 06:24:52;;;;;;;15.98;10.60;;;11.90;90.90;;;;;;5019616;28;20286;-67
2021/04/01 06:27:25;;;;;;;11.10;9.90;;;12.70;88.90;;;;;;5009802;28;20202;-67
2021/04/01 06:30:11;;;;;;;10.73;9.02;;;13.10;87.60;;;;;;5012389;28;20202;-67
2021/04/01 06:32:40;;;;;;;11.73;9.00;;;13.20;87.30;;;;;;5013841;28;20211;-67
2021/04/01 06:35:18;;;;;;;10.93;8.70;;;13.20;85.70;;;;;;5013248;28;20621;-66
2021/04/01 06:38:06;;;;;;;9.80;8.80;;;13.20;85.20;;;;;;5015720;28;20617;-66
2021/04/01 06:40:39;;;;;;;10.52;9.30;;;13.10;84.10;;;;;;5018930;28;20214;-66
2021/04/01 06:43:10;;;;;;;10.52;8.98;;;13.10;85.40;;;;;;5008798;28;20230;-66
2021/04/01 06:45:41;;;;;;;13.80;9.70;;;13.10;85.10;;;;;;5009268;28;20542;-66
2021/04/01 06:48:12;;;;;;;10.68;8.95;;;13.00;85.30;;;;;;5015720;28;20232;-65
2021/04/01 06:50:40;;;;;;;11.23;8.98;;;12.80;86.00;;;;;;5011141;28;20294;-67
2021/04/01 06:53:15;;;;;;;10.95;9.95;;;12.80;85.80;;;;;;5014875;28;20591;-66
2021/04/01 06:55:56;;;;;;;12.27;10.25;;;12.90;85.40;;;;;;5015491;28;20930;-67
2021/04/01 06:58:34;;;;;;;10.07;8.75;;;12.80;85.60;;;;;;5013539;28;20286;-66
2021/04/01 07:01:05;;;;;;;10.55;9.45;;;12.70;85.80;;;;;;5014711;28;20198;-66
2021/04/01 07:03:40;;;;;;;10.77;9.07;;;13.10;86.10;;;;;;5011858;28;20226;-66
2021/04/01 07:06:09;;;;;;;12.02;8.73;;;13.70;84.40;;;;;;5017750;28;20737;-67
2021/04/01 07:08:42;;;;;;;11.35;8.52;;;14.30;82.90;;;;;;5013068;28;20234;-66
2021/04/01 07:11:22;;;;;;;12.50;8.45;;;14.80;81.30;;;;;;5012050;28;20203;-66
2021/04/01 07:13:54;;;;;;;10.50;9.00;;;15.70;78.10;;;;;;5015340;28;20237;-67
2021/04/01 07:16:29;;;;;;;10.75;9.65;;;14.60;79.60;;;;;;5011515;28;20363;-66
2021/04/01 07:46:42;;;;;;;11.23;9.77;;;18.40;67.10;;;;;;5008427;28;20625;-67
2021/04/01 07:49:21;;;;;;;13.60;9.90;;;17.90;69.30;;;;;;5008629;28;20800;-67
2021/04/01 07:51:59;;;;;;;12.55;10.13;;;17.00;70.90;;;;;;5003163;28;20754;-69
2021/04/01 07:54:36;;;;;;;11.25;10.10;;;16.40;73.00;;;;;;5010490;28;20586;-69
2021/04/01 07:57:15;;;;;;;13.00;10.27;;;15.90;73.90;;;;;;4999556;28;20213;-68
2021/04/01 07:59:56;;;;;;;11.23;10.23;;;15.50;75.30;;;;;;5005787;28;20229;-68
2021/04/01 08:02:30;;;;;;;14.77;10.63;;;15.30;76.90;;;;;;5013091;28;20205;-68
2021/04/01 08:04:58;;;;;;;12.90;10.70;;;15.00;77.30;;;;;;5008575;28;20195;-68
2021/04/01 08:07:30;;;;;;;15.02;10.10;;;14.70;79.00;;;;;;5001738;28;20237;-68
2021/04/01 08:10:06;;;;;;;11.77;8.90;;;15.00;79.50;;;;;;5014512;28;20205;-68
2021/04/01 08:12:41;;;;;;;11.65;10.45;;;15.30;79.20;;;;;;5009898;28;20666;-68
2021/04/01 08:15:11;;;;;;;11.60;10.40;;;15.60;78.00;;;;;;5011619;28;20210;-68
2021/04/01 08:17:45;;;;;;;12.82;11.07;;;15.80;77.30;;;;;;5015422;28;20280;-68
2021/04/01 08:20:18;;;;;;;13.18;11.77;;;15.60;77.60;;;;;;5002238;28;20198;-68
2021/04/01 08:22:55;;;;;;;11.50;10.35;;;15.70;77.90;;;;;;5016301;28;20210;-68
2021/04/01 08:25:25;;;;;;;15.65;10.30;;;15.90;77.70;;;;;;5011591;28;20199;-69
2021/04/01 08:28:10;;;;;;;16.15;9.82;;;16.10;76.80;;;;;;5005488;28;20727;-68
2021/04/01 08:33:32;;;;;;;14.32;11.20;;;16.40;76.20;;;;;;4979066;28;20997;-69
2021/04/01 08:35:59;;;;;;;13.75;9.88;;;16.60;76.90;;;;;;5007615;28;20284;-69
2021/04/01 08:38:25;;;;;;;12.15;10.88;;;16.60;76.30;;;;;;5014073;28;20207;-68
2021/04/01 08:40:53;;;;;;;11.32;10.05;;;16.80;75.80;;;;;;5009329;28;20282;-68
2021/04/01 08:43:51;;;;;;;11.70;10.55;;;17.20;75.70;;;;;;5013491;28;20206;-68
2021/04/01 08:46:41;;;;;;;11.98;10.45;;;17.70;75.30;;;;;;5004251;28;20241;-68
2021/04/01 08:49:24;;;;;;;12.38;9.95;;;17.90;75.30;;;;;;5002041;28;20781;-68
2021/04/01 08:52:21;;;;;;;14.00;10.85;;;18.70;72.50;;;;;;5011770;28;20202;-68
2021/04/01 08:54:55;;;;;;;10.88;9.70;;;18.80;71.90;;;;;;5006470;28;20941;-68
2021/04/01 08:57:28;;;;;;;13.10;11.10;;;19.20;71.40;;;;;;5006964;28;20292;-68
2021/04/01 09:00:04;;;;;;;11.75;10.25;;;19.40;69.90;;;;;;5007562;28;20369;-68
2021/04/01 09:02:32;;;;;;;12.18;11.00;;;18.80;70.00;;;;;;5013939;28;20202;-68
2021/04/01 09:05:03;;;;;;;10.40;8.82;;;18.50;70.30;;;;;;5013856;28;20203;-68
2021/04/01 09:07:36;;;;;;;14.80;10.40;;;18.20;72.10;;;;;;5008476;28;20233;-68
2021/04/01 09:10:09;;;;;;;11.63;10.18;;;18.40;72.10;;;;;;5015739;28;20646;-69
2021/04/01 09:12:43;;;;;;;10.10;9.10;;;18.90;72.20;;;;;;5007824;28;20243;-69
2021/04/01 09:15:18;;;;;;;17.75;10.32;;;19.60;70.80;;;;;;5011552;28;20225;-68
2021/04/01 09:17:46;;;;;;;10.43;9.30;;;19.90;68.80;;;;;;5004873;28;20210;-68
2021/04/01 09:20:16;;;;;;;10.07;9.27;;;20.30;68.70;;;;;;5013493;28;20292;-68
2021/04/01 09:22:45;;;;;;;9.83;8.93;;;20.70;67.60;;;;;;5010160;28;20645;-69
2021/04/01 09:25:13;;;;;;;9.33;8.33;;;21.30;65.80;;;;;;5014892;28;20656;-69
2021/04/01 09:27:48;;;;;;;9.37;8.57;;;21.90;64.50;;;;;;5006944;28;20645;-69
2021/04/01 09:30:16;;;;;;;12.00;9.00;;;23.00;62.00;;;;;;5016780;28;20634;-68
2021/04/01 09:32:44;;;;;;;8.50;7.80;;;23.00;62.10;;;;;;5013822;28;20649;-68
2021/04/01 09:35:11;;;;;;;9.47;8.53;;;22.60;59.70;;;;;;5002378;28;20638;-69
2021/04/01 09:37:50;;;;;;;10.23;8.63;;;22.60;63.30;;;;;;5008410;28;20639;-68
2021/04/01 09:40:18;;;;;;;9.77;8.60;;;23.00;59.50;;;;;;5017818;28;20650;-69
2021/04/01 09:42:46;;;;;;;11.33;7.80;;;23.50;58.90;;;;;;5009534;28;20642;-68
2021/04/01 09:45:14;;;;;;;9.10;8.20;;;23.40;60.00;;;;;;5014566;28;20623;-68
2021/04/01 09:47:47;;;;;;;8.20;6.53;;;22.80;62.00;;;;;;5015848;28;20628;-68
2021/04/01 09:50:15;;;;;;;6.30;5.70;;;23.40;57.70;;;;;;5005027;28;20632;-69
2021/04/01 09:52:54;;;;;;;7.80;6.93;;;24.00;56.30;;;;;;5003009;28;21120;-69
2021/04/01 09:55:22;;;;;;;7.47;6.70;;;24.10;55.80;;;;;;5003275;28;20637;-68
2021/04/01 09:57:50;;;;;;;8.30;7.50;;;24.30;55.10;;;;;;5006740;28;20690;-68
2021/04/01 10:00:22;;;;;;;7.67;6.70;;;23.90;55.70;;;;;;5003209;28;20640;-68
2021/04/01 10:03:04;;;;;;;7.70;7.00;;;24.00;56.60;;;;;;5010644;28;20643;-68
2021/04/01 10:05:37;;;;;;;8.57;6.90;;;23.40;59.20;;;;;;5011806;28;20630;-68
2021/04/01 10:08:07;;;;;;;13.63;8.00;;;23.20;58.20;;;;;;5017156;28;20652;-68
2021/04/01 10:10:38;;;;;;;10.70;6.70;;;23.50;59.60;;;;;;5017016;28;20653;-68
2021/04/01 10:13:19;;;;;;;8.20;7.50;;;23.20;61.10;;;;;;5025130;28;20633;-68
2021/04/01 10:15:45;;;;;;;8.67;7.27;;;23.10;59.10;;;;;;5009786;28;20645;-68
2021/04/01 10:18:41;;;;;;;;;;;;;;;;;;;;;
2021/04/01 10:21:17;;;;;;;7.97;7.17;;;22.80;61.30;;;;;;5004229;28;20650;-67
2021/04/01 10:23:45;;;;;;;8.53;7.70;;;23.00;60.80;;;;;;5013281;28;20667;-68
2021/04/01 10:26:14;;;;;;;9.10;8.30;;;23.40;60.60;;;;;;5010282;28;21251;-66
2021/04/01 10:28:58;;;;;;;8.17;7.47;;;23.00;58.20;;;;;;5017410;28;20684;-66
2021/04/01 10:31:25;;;;;;;8.57;7.63;;;23.60;59.10;;;;;;5013499;28;20676;-66
2021/04/01 10:34:05;;;;;;;10.23;7.40;;;23.80;60.00;;;;;;5017538;28;20621;-66
2021/04/01 10:36:32;;;;;;;12.27;8.50;;;24.00;59.80;;;;;;5010314;28;20633;-66
2021/04/01 10:39:08;;;;;;;9.67;7.30;;;24.40;57.90;;;;;;5018882;28;21208;-66
2021/04/01 10:41:45;;;;;;;13.30;7.90;;;24.50;58.50;;;;;;5007172;28;20721;-66
2021/04/01 10:44:12;;;;;;;9.30;7.40;;;24.20;58.60;;;;;;5020066;28;20638;-66
2021/04/01 10:46:42;;;;;;;10.30;7.50;;;24.10;57.90;;;;;;5017415;28;20646;-66
2021/04/01 10:49:10;;;;;;;8.37;7.10;;;24.10;57.80;;;;;;5005372;28;20757;-69
2021/04/01 10:51:37;;;;;;;7.40;6.67;;;24.10;58.30;;;;;;5002985;28;20666;-68
2021/04/01 10:54:09;;;;;;;8.20;7.50;;;24.10;59.40;;;;;;5008204;28;20666;-69
2021/04/01 10:56:46;;;;;;;8.20;7.40;;;24.10;60.10;;;;;;5018202;28;20625;-68
2021/04/01 10:59:13;;;;;;;7.93;7.10;;;24.10;59.70;;;;;;5017493;28;21224;-68
2021/04/01 11:01:44;;;;;;;7.40;6.70;;;24.10;58.90;;;;;;5018559;28;20665;-68
2021/04/01 11:04:13;;;;;;;8.77;6.83;;;24.30;61.70;;;;;;5015911;28;21194;-68
2021/04/01 11:06:41;;;;;;;8.50;7.57;;;24.30;59.40;;;;;;5016671;28;20631;-69
2021/04/01 11:09:10;;;;;;;8.20;6.97;;;24.30;59.40;;;;;;5015525;28;20679;-68
2021/04/01 11:11:54;;;;;;;8.27;7.40;;;24.00;57.00;;;;;;5014070;28;20706;-68
2021/04/01 11:14:24;;;;;;;9.20;7.17;;;23.90;58.70;;;;;;5022075;28;20631;-68
2021/04/01 11:16:52;;;;;;;6.87;6.37;;;23.60;57.80;;;;;;5017343;28;20631;-68
2021/04/01 11:19:19;;;;;;;8.30;6.30;;;23.60;59.10;;;;;;5012550;28;20634;-69
2021/04/01 11:21:46;;;;;;;7.30;6.70;;;23.80;58.60;;;;;;5019811;28;20634;-68
2021/04/01 11:24:12;;;;;;;10.50;7.00;;;24.10;55.70;;;;;;5010224;28;20634;-68
2021/04/01 11:26:39;;;;;;;6.70;6.20;;;24.10;55.20;;;;;;5010432;28;20998;-69
2021/04/01 11:29:13;;;;;;;7.40;6.10;;;24.30;56.90;;;;;;5008575;28;20731;-68
2021/04/01 11:31:42;;;;;;;6.20;5.70;;;24.10;58.20;;;;;;5019283;28;21039;-69
2021/04/01 11:34:09;;;;;;;8.17;6.00;;;23.90;57.80;;;;;;5015863;28;20672;-69
2021/04/01 11:36:40;;;;;;;5.90;5.37;;;24.10;55.90;;;;;;5012320;28;20741;-69
2021/04/01 11:39:24;;;;;;;8.00;7.20;;;24.20;55.10;;;;;;5011809;28;20637;-69
2021/04/01 11:41:51;;;;;;;9.50;7.97;;;24.10;55.50;;;;;;5015738;28;20628;-69
2021/04/01 11:44:18;;;;;;;13.80;12.50;;;24.00;56.50;;;;;;5019766;28;20720;-69
2021/04/01 11:46:45;;;;;;;10.10;8.87;;;24.10;55.40;;;;;;5010011;28;20638;-69
2021/04/01 11:49:12;;;;;;;5.53;5.03;;;24.20;57.30;;;;;;5016930;28;20727;-68
2021/04/01 11:51:38;;;;;;;5.20;4.80;;;24.20;57.10;;;;;;5021978;28;20667;-69
2021/04/01 11:54:08;;;;;;;6.57;5.83;;;24.10;58.40;;;;;;5012598;28;20675;-68
2021/04/01 11:56:35;;;;;;;13.60;6.50;;;23.90;56.80;;;;;;5018670;28;20640;-69
2021/04/01 11:59:08;;;;;;;9.43;6.10;;;23.70;56.50;;;;;;5015581;28;20699;-68
2021/04/01 12:01:36;;;;;;;9.40;6.23;;;23.80;58.60;;;;;;5013513;28;20650;-68
2021/04/01 12:04:05;;;;;;;5.80;5.20;;;23.80;57.60;;;;;;5000129;28;20669;-68
2021/04/01 12:06:33;;;;;;;5.60;5.20;;;24.00;56.40;;;;;;5007885;28;20626;-68
2021/04/01 12:09:00;;;;;;;5.70;5.20;;;24.10;55.60;;;;;;5017864;28;20706;-68
2021/04/01 12:11:27;;;;;;;5.97;5.20;;;24.20;54.60;;;;;;5011545;28;20626;-68
2021/04/01 12:13:54;;;;;;;5.03;4.60;;;24.30;54.90;;;;;;5009961;28;20680;-69
2021/04/01 12:16:23;;;;;;;5.03;4.63;;;24.20;56.90;;;;;;5016222;28;20643;-69
2021/04/01 12:18:49;;;;;;;5.77;5.20;;;24.30;55.10;;;;;;5009142;28;20688;-69
2021/04/01 12:21:18;;;;;;;6.70;5.87;;;24.20;56.00;;;;;;5015667;28;20625;-69
2021/04/01 12:23:48;;;;;;;9.10;5.03;;;24.30;57.20;;;;;;5016725;28;20637;-69
2021/04/01 12:26:14;;;;;;;5.37;4.97;;;24.30;56.20;;;;;;5010139;28;20745;-69
2021/04/01 12:28:41;;;;;;;7.50;5.10;;;24.30;55.40;;;;;;5017355;28;20747;-68
2021/04/01 12:31:12;;;;;;;6.10;5.60;;;24.40;56.70;;;;;;5015811;28;20641;-68
2021/04/01 12:33:48;;;;;;;5.00;4.60;;;24.40;56.00;;;;;;5015430;28;20625;-68
2021/04/01 12:36:15;;;;;;;4.87;4.47;;;24.20;54.90;;;;;;5007217;28;20642;-68
2021/04/01 12:38:45;;;;;;;5.77;4.90;;;24.20;57.80;;;;;;5016392;28;21076;-68
2021/04/01 12:41:23;;;;;;;6.17;4.93;;;24.30;57.90;;;;;;5015679;28;20626;-68
2021/04/01 12:43:50;;;;;;;5.00;4.57;;;24.20;57.20;;;;;;5015659;28;20633;-69
2021/04/01 12:46:16;;;;;;;5.17;4.70;;;24.30;56.30;;;;;;5017650;28;20658;-69
2021/04/01 12:48:46;;;;;;;5.03;4.63;;;24.40;56.50;;;;;;5009410;28;20684;-69
2021/04/01 12:51:15;;;;;;;5.90;4.70;;;24.50;56.60;;;;;;5006786;28;20695;-69
2021/04/01 12:53:41;;;;;;;4.43;4.13;;;24.70;54.00;;;;;;5010695;28;20635;-68
2021/04/01 12:56:12;;;;;;;4.03;3.73;;;24.50;54.70;;;;;;5002250;28;20638;-68
2021/04/01 12:58:42;;;;;;;4.50;4.20;;;24.40;55.00;;;;;;5009609;28;20677;-69
2021/04/01 13:01:22;;;;;;;5.47;5.07;;;24.40;56.10;;;;;;5010692;28;20651;-69
2021/04/01 13:03:49;;;;;;;4.40;4.00;;;24.20;54.10;;;;;;5011781;28;20716;-69
2021/04/01 13:06:18;;;;;;;4.23;3.93;;;24.30;56.70;;;;;;5016489;28;20629;-68
2021/04/01 13:11:21;;;;;;;5.70;3.53;;;24.40;55.10;;;;;;5011418;28;21198;-68
2021/04/01 13:13:47;;;;;;;4.33;4.03;;;24.20;53.40;;;;;;5017856;28;20638;-68
2021/04/01 13:16:14;;;;;;;4.13;3.73;;;24.10;55.30;;;;;;5008464;28;21224;-68
2021/04/01 13:18:40;;;;;;;4.10;3.80;;;24.40;54.90;;;;;;5013325;28;20716;-67
2021/04/01 13:21:28;;;;;;;4.07;3.70;;;24.60;53.80;;;;;;5016421;28;20717;-68
2021/04/01 13:24:01;;;;;;;4.60;4.00;;;24.70;53.40;;;;;;5008398;28;20733;-67
2021/04/01 13:26:30;;;;;;;4.53;3.87;;;24.60;53.70;;;;;;5010054;28;21363;-67
2021/04/01 13:28:56;;;;;;;4.60;3.70;;;24.80;54.90;;;;;;5000827;28;20690;-68
2021/04/01 13:31:31;;;;;;;4.40;4.00;;;24.70;54.80;;;;;;5008566;28;20634;-68
2021/04/01 13:34:03;;;;;;;6.37;3.90;;;24.90;54.30;;;;;;5006992;28;20617;-68
2021/04/01 13:36:34;;;;;;;6.47;4.00;;;24.90;53.50;;;;;;5005554;28;20643;-68
2021/04/01 13:39:02;;;;;;;5.53;4.60;;;24.80;53.60;;;;;;5008186;28;20630;-67
2021/04/01 13:41:40;;;;;;;4.70;4.30;;;24.70;54.60;;;;;;5015642;28;20663;-68
2021/04/01 13:44:09;;;;;;;5.10;4.70;;;24.30;53.50;;;;;;5005582;28;20635;-67
2021/04/01 13:46:36;;;;;;;7.67;4.67;;;23.90;55.30;;;;;;5006311;28;20634;-67
2021/04/01 13:49:05;;;;;;;5.80;5.13;;;23.50;55.30;;;;;;5005497;28;20705;-70
2021/04/01 13:51:31;;;;;;;5.23;4.83;;;23.30;56.30;;;;;;5013294;28;20637;-69